Time;durP1;ratioP1;P1;durP2;ratioP2;P2;SDS_P1;SDS_P2;PMS_P1;PMS_P2;Temp;Humidity;BMP_temperature;BMP_pressure;BME280_temperature;BME280_humidity;BME280_pressure;Samples;Min_cycle;Max_cycle;Signal;HPM_P1;HPM_P2
2023/05/01 00:00:09;;;;;;;5.68;3.83;;;;;;;12.70;100.00;100394.28;5028676;28;20164;-71
2023/05/01 00:02:36;;;;;;;6.32;3.50;;;;;;;12.61;100.00;100399.22;5029700;28;20138;-68
2023/05/01 00:05:01;;;;;;;5.78;4.13;;;;;;;12.53;100.00;100408.50;5030836;28;20480;-70
2023/05/01 00:07:30;;;;;;;6.05;4.10;;;;;;;12.46;100.00;100403.16;5030384;28;20033;-70
2023/05/01 00:09:58;;;;;;;5.90;4.25;;;;;;;12.52;100.00;100407.59;5030298;28;20494;-70
2023/05/01 00:12:24;;;;;;;5.32;4.30;;;;;;;12.58;100.00;100392.25;5030451;28;20107;-70
2023/05/01 00:14:50;;;;;;;6.00;3.90;;;;;;;12.65;100.00;100395.91;5030163;28;20080;-70
2023/05/01 00:17:15;;;;;;;6.30;4.18;;;;;;;12.59;100.00;100401.75;5030442;28;20032;-71
2023/05/01 00:19:41;;;;;;;5.55;4.03;;;;;;;12.49;100.00;100397.19;5030531;28;20034;-69
2023/05/01 00:22:06;;;;;;;5.88;4.10;;;;;;;12.45;100.00;100397.94;5030251;28;20037;-69
2023/05/01 00:24:32;;;;;;;6.85;4.25;;;;;;;12.57;100.00;100397.38;5030023;28;20026;-69
2023/05/01 00:26:58;;;;;;;6.70;4.38;;;;;;;12.33;100.00;100395.00;5030251;28;20026;-69
2023/05/01 00:29:23;;;;;;;6.57;4.30;;;;;;;11.94;100.00;100393.84;5030079;28;20138;-70
2023/05/01 00:31:49;;;;;;;5.95;4.05;;;;;;;11.91;100.00;100399.81;5030019;28;20095;-65
2023/05/01 00:34:14;;;;;;;6.40;4.18;;;;;;;12.01;100.00;100394.91;5029053;28;20057;-69
2023/05/01 00:36:40;;;;;;;7.70;4.38;;;;;;;11.68;100.00;100399.09;5029715;28;20378;-67
2023/05/01 00:39:08;;;;;;;4.85;3.70;;;;;;;11.19;100.00;100402.66;5029960;28;20128;-68
2023/05/01 00:41:34;;;;;;;5.38;4.10;;;;;;;10.75;100.00;100339.22;5030027;28;20033;-69
2023/05/01 00:44:00;;;;;;;5.70;4.28;;;;;;;11.12;100.00;100389.53;5029931;28;20068;-69
2023/05/01 00:46:30;;;;;;;4.72;4.03;;;;;;;11.35;100.00;100378.19;5028392;28;20116;-69
2023/05/01 00:48:57;;;;;;;5.50;4.15;;;;;;;10.91;100.00;100273.47;5029958;28;20036;-69
2023/05/01 00:51:23;;;;;;;5.75;3.67;;;;;;;11.71;100.00;100396.56;5029809;28;20026;-69
2023/05/01 00:53:50;;;;;;;7.75;3.90;;;;;;;11.48;100.00;100388.13;5030353;28;20040;-68
2023/05/01 00:56:16;;;;;;;5.32;3.90;;;;;;;11.27;100.00;100377.97;5033855;28;20067;-70
2023/05/01 00:58:44;;;;;;;5.65;4.20;;;;;;;11.29;100.00;100386.63;5033729;28;20509;-69
2023/05/01 01:01:11;;;;;;;5.53;3.58;;;;;;;11.39;100.00;100382.63;5033972;28;20021;-71
2023/05/01 01:03:36;;;;;;;5.80;4.18;;;;;;;11.25;100.00;100383.09;5033884;28;20028;-68
2023/05/01 01:06:05;;;;;;;6.47;4.10;;;;;;;11.38;100.00;100405.03;5032567;28;20030;-70
2023/05/01 01:08:53;;;;;;;8.23;4.20;;;;;;;11.56;100.00;100409.91;5033509;28;20462;-70
2023/05/01 01:11:41;;;;;;;5.20;4.20;;;;;;;11.47;100.00;100404.44;5033626;28;20032;-68
2023/05/01 01:14:31;;;;;;;7.53;4.35;;;;;;;10.66;100.00;100355.28;5033913;28;20099;-69
2023/05/01 01:17:12;;;;;;;6.43;4.60;;;;;;;10.59;100.00;100407.53;5033750;28;20021;-68
2023/05/01 01:20:12;;;;;;;6.97;5.22;;;;;;;10.86;100.00;100416.19;5032082;28;20034;-66
2023/05/01 01:22:44;;;;;;;8.38;5.68;;;;;;;11.09;100.00;100412.69;5033514;28;20034;-70
2023/05/01 01:25:31;;;;;;;7.40;5.28;;;;;;;11.24;100.00;100417.50;5033765;28;20091;-65
2023/05/01 01:28:11;;;;;;;9.30;5.25;;;;;;;11.38;100.00;100417.09;5033239;28;20028;-70
2023/05/01 01:30:48;;;;;;;6.03;5.15;;;;;;;11.29;100.00;100394.38;5033251;28;20104;-69
2023/05/01 01:33:48;;;;;;;8.68;6.25;;;;;;;11.38;100.00;100410.19;5021051;28;20034;-67
2023/05/01 01:36:20;;;;;;;6.85;5.90;;;;;;;11.33;100.00;100415.22;5032933;28;20033;-69
2023/05/01 01:39:20;;;;;;;7.03;5.50;;;;;;;11.36;100.00;100410.97;5033478;28;20053;-68
2023/05/01 01:41:50;;;;;;;7.55;5.70;;;;;;;11.24;100.00;100433.00;5011130;28;20038;-70
2023/05/01 01:44:21;;;;;;;7.63;5.57;;;;;;;11.44;100.00;100432.78;5010339;28;20065;-67
2023/05/01 01:46:49;;;;;;;7.07;4.65;;;;;;;11.59;100.00;100430.69;5010496;28;20437;-69
2023/05/01 01:49:20;;;;;;;8.98;5.32;;;;;;;11.54;100.00;100429.69;5010637;28;20088;-69
2023/05/01 01:51:47;;;;;;;8.05;5.35;;;;;;;11.62;100.00;100427.34;5010434;28;20030;-69
2023/05/01 01:54:17;;;;;;;7.97;5.32;;;;;;;11.49;100.00;100395.91;5010918;28;20045;-66
2023/05/01 01:56:43;;;;;;;;;;;;;;;11.73;100.00;100418.19;5010740;28;20080;-70
2023/05/01 01:59:10;;;;;;;9.32;5.45;;;;;;;11.77;100.00;100416.59;5010364;28;19963;-69
2023/05/01 02:01:38;;;;;;;6.75;5.50;;;;;;;11.63;100.00;100403.22;4993966;28;20460;-69
2023/05/01 02:04:05;;;;;;;5.90;4.95;;;;;;;11.58;100.00;100410.84;5010195;28;20030;-66
2023/05/01 02:06:33;;;;;;;6.72;5.28;;;;;;;11.65;100.00;100433.47;5009805;28;20034;-66
2023/05/01 02:09:02;;;;;;;10.90;5.57;;;;;;;11.67;100.00;100430.94;5010007;28;20033;-66
2023/05/01 02:11:30;;;;;;;6.97;4.32;;;;;;;11.59;100.00;100434.97;5009764;28;20042;-66
2023/05/01 02:13:56;;;;;;;5.65;4.40;;;;;;;11.47;100.00;100440.66;5010311;28;20136;-67
2023/05/01 02:16:24;;;;;;;6.18;4.53;;;;;;;11.28;100.00;100441.75;5010145;28;20595;-67
2023/05/01 02:18:51;;;;;;;6.40;4.25;;;;;;;11.14;100.00;100442.16;5019475;28;20419;-67
2023/05/01 02:21:17;;;;;;;6.10;4.13;;;;;;;10.86;100.00;100432.56;5032487;28;20112;-67
2023/05/01 02:23:43;;;;;;;6.25;4.25;;;;;;;10.98;100.00;100458.81;5032596;28;20087;-69
2023/05/01 02:26:15;;;;;;;5.63;4.25;;;;;;;10.96;100.00;100455.28;5032203;28;20484;-69
2023/05/01 02:28:41;;;;;;;5.93;4.63;;;;;;;10.92;100.00;100460.31;5032537;28;20029;-67
2023/05/01 02:31:08;;;;;;;6.22;4.88;;;;;;;10.97;100.00;100466.53;5029761;28;20557;-69
2023/05/01 02:33:33;;;;;;;6.30;4.50;;;;;;;10.99;100.00;100463.16;5032476;28;20129;-66
2023/05/01 02:35:59;;;;;;;6.80;4.72;;;;;;;11.03;100.00;100465.84;5032299;28;20037;-66
2023/05/01 02:38:24;;;;;;;6.25;4.47;;;;;;;11.05;100.00;100478.00;5032055;28;20025;-67
2023/05/01 02:40:54;;;;;;;5.93;4.55;;;;;;;11.04;100.00;100465.94;5031985;28;20414;-66
2023/05/01 02:43:22;;;;;;;7.70;4.32;;;;;;;11.03;100.00;100471.91;5031825;28;20061;-73
2023/05/01 02:45:49;;;;;;;6.03;4.40;;;;;;;11.08;100.00;100474.63;5031913;28;20018;-72
2023/05/01 02:48:19;;;;;;;5.70;4.50;;;;;;;11.11;100.00;100480.78;5032025;28;20029;-69
2023/05/01 02:50:46;;;;;;;7.50;4.68;;;;;;;11.13;100.00;100481.72;5032138;28;20041;-68
2023/05/01 02:53:12;;;;;;;4.95;4.15;;;;;;;11.10;100.00;100466.13;5029824;28;20029;-69
2023/05/01 02:55:38;;;;;;;7.40;4.68;;;;;;;11.01;100.00;100473.56;5031787;28;20036;-69
2023/05/01 02:58:03;;;;;;;7.28;4.88;;;;;;;10.96;100.00;100486.28;5031798;28;20018;-70
2023/05/01 03:00:29;;;;;;;6.38;4.93;;;;;;;10.70;100.00;100492.25;5031958;28;20023;-67
2023/05/01 03:02:55;;;;;;;6.38;4.60;;;;;;;10.77;100.00;100500.25;5031799;28;20104;-71
2023/05/01 03:05:20;;;;;;;7.60;5.32;;;;;;;10.76;100.00;100498.50;5031829;28;20022;-69
2023/05/01 03:07:47;;;;;;;7.65;5.30;;;;;;;10.52;100.00;100460.63;5030047;28;20040;-68
2023/05/01 03:10:12;;;;;;;6.60;5.68;;;;;;;10.77;100.00;100483.91;5031436;28;20029;-70
2023/05/01 03:12:38;;;;;;;7.38;5.57;;;;;;;10.59;100.00;100438.50;5031598;28;20033;-70
2023/05/01 03:15:04;;;;;;;6.53;5.40;;;;;;;10.95;100.00;100501.75;5031476;28;20104;-70
2023/05/01 03:17:30;;;;;;;6.75;4.95;;;;;;;10.98;100.00;100494.13;5030783;28;20029;-71
2023/05/01 03:19:55;;;;;;;7.15;5.18;;;;;;;11.07;100.00;100504.78;5030995;28;20017;-67
2023/05/01 03:22:21;;;;;;;6.53;5.60;;;;;;;11.09;100.00;100503.13;5031664;28;20128;-69
2023/05/01 03:24:46;;;;;;;11.48;5.80;;;;;;;10.89;100.00;100463.69;5031097;28;20021;-69
2023/05/01 03:27:12;;;;;;;6.97;5.38;;;;;;;11.12;100.00;100499.78;5031131;28;20069;-68
2023/05/01 03:29:38;;;;;;;6.07;5.28;;;;;;;11.07;100.00;100499.59;5031138;28;20159;-67
2023/05/01 03:32:04;;;;;;;8.77;5.97;;;;;;;10.96;100.00;100485.44;5031445;28;20038;-70
2023/05/01 03:34:30;;;;;;;7.78;5.85;;;;;;;11.11;100.00;100514.38;5030930;28;20509;-71
2023/05/01 03:36:55;;;;;;;7.10;5.45;;;;;;;11.12;100.00;100502.34;5030823;28;20025;-72
2023/05/01 03:39:21;;;;;;;8.55;5.40;;;;;;;10.91;100.00;100464.59;5030575;28;20025;-71
2023/05/01 03:41:46;;;;;;;7.28;5.60;;;;;;;10.92;100.00;100476.69;5031004;28;20033;-67
2023/05/01 03:44:12;;;;;;;6.28;5.35;;;;;;;11.07;100.00;100493.56;5031213;28;20025;-67
2023/05/01 03:46:37;;;;;;;7.47;5.72;;;;;;;11.25;100.00;100520.06;5031038;28;20091;-70
2023/05/01 03:49:03;;;;;;;7.50;5.55;;;;;;;11.23;100.00;100505.31;5030561;28;20030;-67
2023/05/01 03:51:29;;;;;;;6.47;5.65;;;;;;;11.26;100.00;100523.50;5030899;28;20064;-67
2023/05/01 03:53:57;;;;;;;7.15;5.47;;;;;;;11.26;100.00;100518.34;5030579;28;20441;-72
2023/05/01 03:56:24;;;;;;;6.97;5.50;;;;;;;11.15;100.00;100518.84;5030716;28;20163;-67
2023/05/01 03:58:50;;;;;;;7.32;5.30;;;;;;;11.10;100.00;100507.47;5030893;28;20519;-70
2023/05/01 04:01:16;;;;;;;10.25;5.70;;;;;;;11.05;100.00;100510.72;5030980;28;20021;-67
2023/05/01 04:03:41;;;;;;;6.95;5.47;;;;;;;10.96;100.00;100516.44;5030441;28;20035;-66
2023/05/01 04:06:07;;;;;;;7.10;5.97;;;;;;;11.04;100.00;100525.34;5030402;28;20029;-70
2023/05/01 04:08:32;;;;;;;7.05;6.00;;;;;;;11.05;100.00;100527.06;5030376;28;20045;-67
2023/05/01 04:10:57;;;;;;;8.10;5.45;;;;;;;10.98;100.00;100530.28;5030527;28;20029;-68
2023/05/01 04:13:23;;;;;;;6.90;5.38;;;;;;;11.05;100.00;100541.72;5027906;28;20488;-66
2023/05/01 04:15:48;;;;;;;8.30;5.40;;;;;;;11.02;100.00;100539.91;5030404;28;20025;-68
2023/05/01 04:18:14;;;;;;;7.30;5.50;;;;;;;10.91;100.00;100536.91;5026624;28;20105;-69
2023/05/01 04:20:39;;;;;;;7.30;5.30;;;;;;;10.72;100.00;100521.59;5020419;28;20033;-67
2023/05/01 04:23:05;;;;;;;8.90;5.78;;;;;;;10.65;100.00;100535.94;5030051;28;20543;-72
2023/05/01 04:25:30;;;;;;;7.00;6.30;;;;;;;10.64;100.00;100535.09;5030800;28;20175;-68
2023/05/01 04:27:56;;;;;;;6.55;5.75;;;;;;;10.36;100.00;100534.00;5028867;28;20084;-69
2023/05/01 04:30:21;;;;;;;8.23;6.13;;;;;;;10.27;100.00;100541.38;5029745;28;20025;-69
2023/05/01 04:32:47;;;;;;;7.90;6.15;;;;;;;10.36;100.00;100544.34;5028622;28;20108;-68
2023/05/01 04:35:12;;;;;;;8.02;5.97;;;;;;;10.49;100.00;100543.13;5028617;28;20149;-69
2023/05/01 04:37:38;;;;;;;12.27;6.95;;;;;;;10.64;100.00;100547.09;5029656;28;20037;-67
2023/05/01 04:40:04;;;;;;;7.75;6.72;;;;;;;10.55;100.00;100505.47;5021424;28;20029;-69
2023/05/01 04:42:30;;;;;;;9.27;7.15;;;;;;;10.89;100.00;100542.84;5025696;28;20033;-70
2023/05/01 04:44:56;;;;;;;7.97;6.85;;;;;;;10.95;100.00;100543.06;5030234;28;20025;-67
2023/05/01 04:47:21;;;;;;;12.98;6.65;;;;;;;10.97;100.00;100538.84;5028471;28;20040;-73
2023/05/01 04:49:46;;;;;;;9.20;7.15;;;;;;;11.06;100.00;100541.75;5029983;28;20422;-67
2023/05/01 04:52:12;;;;;;;9.80;7.55;;;;;;;11.21;100.00;100553.47;5029742;28;20033;-67
2023/05/01 04:54:37;;;;;;;9.38;7.82;;;;;;;11.23;100.00;100544.09;5029583;28;20113;-70
2023/05/01 04:57:03;;;;;;;9.90;7.60;;;;;;;11.36;100.00;100553.16;5029974;28;20112;-71
2023/05/01 04:59:28;;;;;;;9.55;7.20;;;;;;;11.41;100.00;100559.34;5029856;28;20029;-70
2023/05/01 05:01:53;;;;;;;9.88;7.45;;;;;;;11.43;100.00;100561.16;5029853;28;20399;-70
2023/05/01 05:04:19;;;;;;;8.95;7.47;;;;;;;11.44;100.00;100559.44;5029476;28;20022;-72
2023/05/01 05:06:44;;;;;;;9.30;7.57;;;;;;;11.41;100.00;100556.75;5029673;28;20037;-69
2023/05/01 05:09:10;;;;;;;9.65;6.78;;;;;;;11.27;100.00;100527.84;5030012;28;20411;-68
2023/05/01 05:11:35;;;;;;;9.15;7.50;;;;;;;11.58;100.00;100567.69;5030101;28;20423;-74
2023/05/01 05:14:01;;;;;;;9.73;7.20;;;;;;;11.68;100.00;100584.41;5030069;28;20029;-71
2023/05/01 05:16:26;;;;;;;7.97;7.15;;;;;;;11.77;100.00;100585.56;5030118;28;20112;-75
2023/05/01 05:18:54;;;;;;;7.95;6.90;;;;;;;11.89;100.00;100581.69;5028467;28;20103;-69
2023/05/01 05:21:20;;;;;;;9.07;7.35;;;;;;;12.02;100.00;100590.75;5029861;28;20040;-72
2023/05/01 05:23:45;;;;;;;8.02;6.93;;;;;;;12.13;100.00;100587.66;5029653;28;20033;-71
2023/05/01 05:26:11;;;;;;;10.63;7.30;;;;;;;12.24;100.00;100595.78;5028666;28;20032;-75
2023/05/01 05:28:36;;;;;;;8.77;6.25;;;;;;;12.13;100.00;100556.59;5029664;28;20037;-69
2023/05/01 05:31:02;;;;;;;6.93;6.22;;;;;;;12.29;100.00;100573.50;5029984;28;20017;-69
2023/05/01 05:33:28;;;;;;;8.73;6.88;;;;;;;12.60;100.00;100602.09;5029337;28;20566;-68
2023/05/01 05:35:53;;;;;;;9.38;6.80;;;;;;;12.52;100.00;100577.66;5029281;28;20120;-71
2023/05/01 05:38:19;;;;;;;7.40;6.63;;;;;;;12.82;100.00;100605.31;5030035;28;20030;-68
2023/05/01 05:40:44;;;;;;;8.80;6.32;;;;;;;12.94;100.00;100608.28;5031221;28;20395;-68
2023/05/01 05:43:10;;;;;;;7.95;6.93;;;;;;;13.04;100.00;100601.66;5033520;28;20037;-68
2023/05/01 05:45:36;;;;;;;7.50;6.22;;;;;;;13.18;100.00;100615.00;5033596;28;20030;-73
2023/05/01 05:48:02;;;;;;;8.80;6.68;;;;;;;13.19;100.00;100607.25;5033107;28;20026;-72
2023/05/01 05:50:28;;;;;;;8.57;6.47;;;;;;;13.28;100.00;100606.63;5032890;28;20033;-71
2023/05/01 05:52:54;;;;;;;7.88;6.30;;;;;;;13.52;100.00;100626.34;5033241;28;20030;-74
2023/05/01 05:55:19;;;;;;;7.75;6.43;;;;;;;13.47;100.00;100614.97;5033117;28;20022;-69
2023/05/01 05:57:45;;;;;;;7.22;6.53;;;;;;;13.59;100.00;100631.75;5033331;28;20028;-74
2023/05/01 06:00:11;;;;;;;7.05;6.32;;;;;;;13.50;100.00;100602.97;5033042;28;20048;-71
2023/05/01 06:02:36;;;;;;;6.63;5.93;;;;;;;13.40;100.00;100581.09;5032976;28;20025;-74
2023/05/01 06:05:02;;;;;;;7.45;6.47;;;;;;;13.80;100.00;100643.53;5032594;28;20067;-75
2023/05/01 06:07:28;;;;;;;9.88;6.50;;;;;;;13.73;100.00;100606.19;5032944;28;20033;-71
2023/05/01 06:09:54;;;;;;;8.85;6.35;;;;;;;14.02;100.00;100644.13;5032688;28;20036;-68
2023/05/01 06:12:20;;;;;;;10.98;8.20;;;;;;;14.13;100.00;100644.38;5032547;28;20475;-73
2023/05/01 06:14:45;;;;;;;8.32;6.80;;;;;;;13.96;100.00;100639.63;5031365;28;20033;-69
2023/05/01 06:17:11;;;;;;;7.93;6.20;;;;;;;13.83;100.00;100604.72;5032734;28;20486;-70
2023/05/01 06:19:36;;;;;;;7.45;6.20;;;;;;;14.12;100.00;100650.38;5032339;28;20025;-69
2023/05/01 06:22:02;;;;;;;8.50;6.30;;;;;;;14.19;100.00;100641.91;5032816;28;20021;-71
2023/05/01 06:24:27;;;;;;;6.43;5.57;;;;;;;14.10;100.00;100615.75;5032505;28;20037;-67
2023/05/01 06:26:53;;;;;;;6.88;5.65;;;;;;;14.49;100.00;100651.31;5032382;28;20408;-70
2023/05/01 06:29:18;;;;;;;9.63;5.97;;;;;;;14.59;100.00;100650.66;5032556;28;20502;-68
2023/05/01 06:31:44;;;;;;;10.25;5.93;;;;;;;14.61;100.00;100646.41;5032540;28;20030;-70
2023/05/01 06:34:11;;;;;;;7.72;6.07;;;;;;;14.60;100.00;100651.56;5031839;28;20053;-70
2023/05/01 06:36:37;;;;;;;6.18;5.15;;;;;;;14.54;100.00;100655.78;5034551;28;20029;-70
2023/05/01 06:39:03;;;;;;;6.85;5.47;;;;;;;14.76;100.00;100660.63;5030131;28;20384;-70
2023/05/01 06:41:28;;;;;;;6.45;5.35;;;;;;;14.88;100.00;100666.97;5031657;28;20112;-69
2023/05/01 06:43:54;;;;;;;11.57;6.18;;;;;;;15.09;100.00;100664.81;5032239;28;20037;-71
2023/05/01 06:46:20;;;;;;;7.35;5.50;;;;;;;15.03;100.00;100645.63;5032038;28;20030;-71
2023/05/01 06:48:45;;;;;;;6.97;5.25;;;;;;;15.36;100.00;100670.59;5032159;28;20048;-70
2023/05/01 06:51:13;;;;;;;6.85;4.72;;;;;;;15.56;97.94;100675.31;5031502;28;20076;-70
2023/05/01 06:53:40;;;;;;;11.55;5.10;;;;;;;15.59;97.21;100672.78;5030889;28;20033;-67
2023/05/01 06:56:06;;;;;;;7.25;4.70;;;;;;;15.60;96.91;100676.25;5045037;28;20045;-69
2023/05/01 06:58:32;;;;;;;6.32;4.72;;;;;;;15.69;95.53;100679.06;5031900;28;20120;-70
2023/05/01 07:00:59;;;;;;;6.63;4.50;;;;;;;15.65;95.74;100678.13;5031709;28;20547;-70
2023/05/01 07:03:26;;;;;;;9.60;5.38;;;;;;;15.76;94.30;100687.84;5031635;28;20035;-69
2023/05/01 07:05:55;;;;;;;11.93;5.78;;;;;;;15.83;95.68;100685.41;5031922;28;20025;-71
2023/05/01 07:08:21;;;;;;;15.23;5.72;;;;;;;16.04;93.61;100691.88;5031901;28;20030;-71
2023/05/01 07:10:46;;;;;;;31.15;7.45;;;;;;;15.73;93.94;100653.97;5031685;28;20041;-71
2023/05/01 07:13:11;;;;;;;24.77;7.38;;;;;;;15.99;93.75;100693.53;5032362;28;20036;-68
2023/05/01 07:15:37;;;;;;;28.27;8.32;;;;;;;15.74;91.43;100646.19;5032552;28;20043;-71
2023/05/01 07:18:07;;;;;;;30.77;8.55;;;;;;;15.96;91.86;100694.34;5032189;28;20025;-71
2023/05/01 07:20:33;;;;;;;22.70;8.30;;;;;;;15.95;96.60;100689.09;5032031;28;20060;-67
2023/05/01 07:22:59;;;;;;;16.80;7.90;;;;;;;16.02;99.22;100693.56;5032124;28;20444;-67
2023/05/01 07:25:24;;;;;;;18.88;7.15;;;;;;;16.12;94.70;100694.63;5031911;28;20060;-69
2023/05/01 07:27:50;;;;;;;12.55;6.22;;;;;;;16.20;92.80;100698.25;5031940;28;20025;-66
2023/05/01 07:30:15;;;;;;;13.88;5.45;;;;;;;16.25;94.84;100694.00;5032042;28;20341;-72
2023/05/01 07:32:42;;;;;;;10.13;5.13;;;;;;;16.31;92.91;100694.09;5031691;28;20430;-68
2023/05/01 07:35:07;;;;;;;13.32;6.15;;;;;;;16.37;96.91;100682.03;5031488;28;20054;-70
2023/05/01 07:37:33;;;;;;;12.07;5.65;;;;;;;16.50;95.92;100694.41;5031626;28;20048;-68
2023/05/01 07:39:58;;;;;;;10.40;4.72;;;;;;;16.52;92.12;100702.25;5031645;28;20468;-68
2023/05/01 07:42:26;;;;;;;8.45;4.53;;;;;;;16.46;90.86;100663.91;5031691;28;20029;-67
2023/05/01 07:44:51;;;;;;;6.30;3.60;;;;;;;16.88;89.63;100694.09;5030162;28;20064;-70
2023/05/01 07:47:18;;;;;;;10.07;4.10;;;;;;;17.26;89.61;100700.75;5031240;28;20033;-72
2023/05/01 07:49:43;;;;;;;10.13;4.00;;;;;;;17.42;92.03;100702.72;5031656;28;20112;-68
2023/05/01 07:52:09;;;;;;;7.13;4.28;;;;;;;17.54;90.34;100699.34;5030177;28;20109;-69
2023/05/01 07:54:35;;;;;;;11.15;5.30;;;;;;;17.34;88.76;100664.31;5031566;28;20392;-70
2023/05/01 07:57:01;;;;;;;8.95;5.05;;;;;;;17.51;87.26;100691.50;5031477;28;20033;-69
2023/05/01 07:59:27;;;;;;;8.82;5.05;;;;;;;17.53;87.66;100712.41;5031780;28;20159;-69
2023/05/01 08:01:53;;;;;;;9.07;5.60;;;;;;;17.59;87.18;100704.63;5031357;28;20069;-68
2023/05/01 08:04:21;;;;;;;11.85;4.60;;;;;;;17.73;86.28;100710.00;5045090;28;20072;-70
2023/05/01 08:06:47;;;;;;;7.00;4.60;;;;;;;17.82;82.13;100683.13;5030722;28;20361;-66
2023/05/01 08:09:13;;;;;;;9.45;4.18;;;;;;;18.23;81.45;100708.81;5031243;28;20059;-67
2023/05/01 08:11:38;;;;;;;6.22;4.32;;;;;;;18.47;82.99;100712.50;5031260;28;20616;-70
2023/05/01 08:14:04;;;;;;;6.88;3.63;;;;;;;18.67;77.15;100708.31;5031168;28;20104;-67
2023/05/01 08:16:29;;;;;;;5.97;3.90;;;;;;;18.72;80.14;100711.84;5031186;28;20025;-66
2023/05/01 08:18:55;;;;;;;18.98;5.20;;;;;;;18.78;74.52;100721.47;5031176;28;20052;-66
2023/05/01 08:21:20;;;;;;;9.93;3.92;;;;;;;18.96;72.12;100717.28;5030913;28;20048;-70
2023/05/01 08:23:45;;;;;;;7.45;3.75;;;;;;;19.08;71.74;100717.34;5031396;28;20044;-69
2023/05/01 08:26:11;;;;;;;11.02;3.83;;;;;;;19.15;70.98;100719.16;5031056;28;20034;-70
2023/05/01 08:28:36;;;;;;;6.57;3.67;;;;;;;19.29;72.11;100705.22;5030862;28;20029;-70
2023/05/01 08:31:02;;;;;;;6.07;3.78;;;;;;;19.36;72.82;100702.63;5028979;28;20447;-69
2023/05/01 08:33:28;;;;;;;7.50;3.70;;;;;;;19.50;70.39;100704.44;5030722;28;20116;-70
2023/05/01 08:35:53;;;;;;;5.30;3.15;;;;;;;19.59;68.97;100699.25;5030822;28;20121;-70
2023/05/01 08:38:19;;;;;;;5.57;3.38;;;;;;;19.23;73.09;100654.59;5024758;28;20388;-70
2023/05/01 08:40:55;;;;;;;9.27;3.50;;;;;;;19.43;66.80;100655.53;5020815;28;20399;-68
2023/05/01 08:43:21;;;;;;;7.90;3.80;;;;;;;19.59;70.05;100693.13;5021168;28;20026;-69
2023/05/01 08:45:47;;;;;;;10.95;3.80;;;;;;;19.66;69.29;100701.00;5034124;28;20404;-71
2023/05/01 08:48:17;;;;;;;6.30;2.97;;;;;;;19.62;63.03;100665.22;5019362;28;20029;-70
2023/05/01 08:50:45;;;;;;;4.45;2.90;;;;;;;19.66;63.45;100666.09;5017930;28;20026;-68
2023/05/01 08:53:14;;;;;;;7.45;3.30;;;;;;;19.91;64.74;100692.38;5019894;28;20033;-70
2023/05/01 08:55:43;;;;;;;8.55;3.15;;;;;;;19.75;61.32;100667.84;5025412;28;20029;-70
2023/05/01 08:58:12;;;;;;;8.88;3.17;;;;;;;20.11;67.38;100692.41;5029793;28;20056;-69
2023/05/01 09:00:39;;;;;;;14.90;4.80;;;;;;;20.18;59.68;100676.69;5030362;28;20042;-69
2023/05/01 09:03:06;;;;;;;16.92;6.18;;;;;;;20.18;63.20;100676.69;5028797;28;20271;-69
2023/05/01 09:05:32;;;;;;;6.25;2.88;;;;;;;20.34;57.90;100676.72;5030198;28;20029;-70
2023/05/01 09:07:59;;;;;;;8.27;4.50;;;;;;;20.36;60.07;100688.06;5027618;28;20030;-70
2023/05/01 09:10:26;;;;;;;7.10;3.50;;;;;;;20.44;60.26;100691.56;5029627;28;20026;-69
2023/05/01 09:12:57;;;;;;;7.45;3.15;;;;;;;20.57;57.58;100683.69;5029552;28;20048;-69
2023/05/01 09:15:42;;;;;;;6.13;2.70;;;;;;;20.17;57.31;100624.28;5028076;28;20503;-70
2023/05/01 09:18:07;;;;;;;6.35;3.03;;;;;;;20.42;56.98;100661.81;5031023;28;20050;-69
2023/05/01 09:20:36;;;;;;;10.07;3.40;;;;;;;20.78;61.53;100685.44;5030480;28;20045;-67
2023/05/01 09:23:02;;;;;;;8.38;2.83;;;;;;;20.96;58.57;100687.13;5030667;28;20029;-70
2023/05/01 09:25:27;;;;;;;9.35;3.70;;;;;;;21.05;59.57;100684.50;5029911;28;20120;-69
2023/05/01 09:27:54;;;;;;;7.70;3.15;;;;;;;20.89;60.68;100656.56;5030816;28;20025;-67
2023/05/01 09:30:30;;;;;;;5.78;2.80;;;;;;;21.09;57.77;100674.88;5030717;28;20507;-69
2023/05/01 09:33:10;;;;;;;6.93;3.10;;;;;;;20.96;61.06;100676.63;5030595;28;20466;-69
2023/05/01 09:35:50;;;;;;;11.73;4.70;;;;;;;20.79;60.94;100674.94;5030551;28;20122;-70
2023/05/01 09:38:26;;;;;;;;;;;;;;;20.63;62.02;100681.91;5031179;28;20412;-70
2023/05/01 09:41:04;;;;;;;18.45;5.75;;;;;;;20.46;63.47;100674.09;5030663;28;20391;-69
2023/05/01 09:43:30;;;;;;;9.70;3.90;;;;;;;20.64;61.61;100674.94;5030374;28;20033;-70
2023/05/01 09:46:04;;;;;;;17.23;4.50;;;;;;;20.56;63.51;100671.44;5030868;28;20484;-69
2023/05/01 09:48:30;;;;;;;6.28;3.10;;;;;;;20.52;61.50;100681.94;5031848;28;20033;-70
2023/05/01 09:50:55;;;;;;;5.90;3.13;;;;;;;20.71;63.90;100668.84;5032853;28;20064;-70
2023/05/01 09:53:36;;;;;;;6.38;3.67;;;;;;;20.63;62.15;100676.66;5033317;28;20492;-70
2023/05/01 09:56:02;;;;;;;6.03;3.40;;;;;;;20.59;60.96;100676.69;5031313;28;20025;-67
2023/05/01 09:58:27;;;;;;;6.22;3.50;;;;;;;20.25;61.52;100647.84;5032896;28;20029;-70
2023/05/01 10:00:53;;;;;;;6.90;3.13;;;;;;;20.64;61.06;100685.44;5032838;28;20021;-70
2023/05/01 10:03:18;;;;;;;5.45;2.85;;;;;;;20.97;59.73;100670.53;5032974;28;20396;-71
2023/05/01 10:05:44;;;;;;;6.40;3.03;;;;;;;20.91;61.22;100683.66;5033072;28;20026;-67
2023/05/01 10:08:13;;;;;;;7.97;3.92;;;;;;;20.92;61.13;100691.56;5031686;28;20029;-71
2023/05/01 10:10:39;;;;;;;3.95;2.85;;;;;;;21.21;59.29;100666.06;5032508;28;20032;-70
2023/05/01 10:13:16;;;;;;;4.70;3.20;;;;;;;21.52;57.69;100679.06;5031022;28;20041;-71
2023/05/01 10:15:43;;;;;;;6.43;3.15;;;;;;;21.52;56.75;100634.41;5030972;28;20100;-72
2023/05/01 10:18:10;;;;;;;7.13;3.45;;;;;;;22.00;59.51;100682.31;5031895;28;20116;-71
2023/05/01 10:20:55;;;;;;;5.75;2.97;;;;;;;21.68;57.30;100669.38;5048433;28;20116;-69
2023/05/01 10:23:21;;;;;;;5.63;2.92;;;;;;;21.55;54.54;100681.69;5049599;28;20223;-70
2023/05/01 10:25:48;;;;;;;6.15;3.53;;;;;;;21.40;54.22;100633.59;5049591;28;20037;-70
2023/05/01 10:28:14;;;;;;;7.38;3.10;;;;;;;21.77;55.39;100664.94;5048634;28;20491;-72
2023/05/01 10:30:40;;;;;;;8.63;3.53;;;;;;;21.47;55.95;100676.44;5048220;28;20040;-72
2023/05/01 10:33:06;;;;;;;6.55;3.00;;;;;;;21.23;54.58;100656.44;5049526;28;20119;-71
2023/05/01 10:35:37;;;;;;;6.10;3.10;;;;;;;21.59;54.13;100665.06;5048772;28;20525;-70
2023/05/01 10:38:08;;;;;;;4.50;2.53;;;;;;;22.01;53.02;100677.91;5049063;28;20021;-70
2023/05/01 10:40:42;;;;;;;7.65;3.13;;;;;;;22.40;52.03;100671.50;5049526;28;20072;-71
2023/05/01 10:43:25;;;;;;;13.15;5.85;;;;;;;22.57;50.52;100675.78;5048352;28;20044;-71
2023/05/01 10:45:51;;;;;;;8.05;2.90;;;;;;;22.58;53.64;100669.59;5023274;28;20461;-69
2023/05/01 10:48:36;;;;;;;10.13;4.45;;;;;;;22.69;52.42;100673.03;5009227;28;20037;-68
2023/05/01 10:51:10;;;;;;;18.10;5.10;;;;;;;22.73;50.23;100681.72;5009239;28;20038;-70
2023/05/01 10:53:37;;;;;;;8.07;3.42;;;;;;;22.56;48.67;100676.66;5009822;28;20532;-72
2023/05/01 10:56:04;;;;;;;4.35;2.67;;;;;;;22.54;49.67;100667.91;4992823;28;20034;-73
2023/05/01 10:58:54;;;;;;;4.97;2.58;;;;;;;22.77;46.75;100673.81;5008866;28;20041;-71
2023/05/01 11:01:38;;;;;;;4.40;2.47;;;;;;;22.76;47.74;100642.25;4988837;28;20038;-68
2023/05/01 11:04:04;;;;;;;3.90;2.35;;;;;;;22.88;46.21;100646.47;4989503;28;20204;-71
2023/05/01 11:06:30;;;;;;;13.13;4.00;;;;;;;23.01;48.07;100674.41;4989409;28;20584;-69
2023/05/01 11:08:56;;;;;;;7.40;2.72;;;;;;;23.23;47.63;100663.69;4989537;28;20038;-72
2023/05/01 11:11:21;;;;;;;6.18;2.50;;;;;;;23.46;47.58;100663.38;4987046;28;20034;-73
2023/05/01 11:13:56;;;;;;;4.63;2.47;;;;;;;;;;4988978;28;20053;-69
2023/05/01 11:16:36;;;;;;;4.30;2.42;;;;;;;23.20;47.10;100668.97;4989307;28;20035;-71
2023/05/01 11:19:22;;;;;;;4.10;2.28;;;;;;;23.04;43.66;100662.97;4989661;28;20532;-71
2023/05/01 11:21:49;;;;;;;4.75;2.30;;;;;;;23.08;43.98;100657.66;4925243;29;20533;-69